sensor_id;sensor_type;location;lat;lon;timestamp;P1;durP1;ratioP1;P2;durP2;ratioP2
17955;SDS011;27666;51.498;11.966;2022-12-07T00:00:49;14.13;;;8.17;;
17955;SDS011;27666;51.498;11.966;2022-12-07T00:03:36;15.73;;;7.97;;
17955;SDS011;27666;51.498;11.966;2022-12-07T00:06:23;11.43;;;7.43;;
17955;SDS011;27666;51.498;11.966;2022-12-07T00:09:11;13.73;;;8.47;;
17955;SDS011;27666;51.498;11.966;2022-12-07T00:11:58;14.30;;;8.73;;
17955;SDS011;27666;51.498;11.966;2022-12-07T00:14:44;12.97;;;8.33;;
17955;SDS011;27666;51.498;11.966;2022-12-07T00:17:32;14.83;;;9.13;;
17955;SDS011;27666;51.498;11.966;2022-12-07T00:20:19;24.23;;;13.10;;
17955;SDS011;27666;51.498;11.966;2022-12-07T00:23:05;17.77;;;10.23;;
17955;SDS011;27666;51.498;11.966;2022-12-07T00:25:51;16.00;;;10.00;;
17955;SDS011;27666;51.498;11.966;2022-12-07T00:28:38;15.03;;;9.70;;
17955;SDS011;27666;51.498;11.966;2022-12-07T00:31:25;16.93;;;10.67;;
17955;SDS011;27666;51.498;11.966;2022-12-07T00:34:15;15.87;;;10.27;;
17955;SDS011;27666;51.498;11.966;2022-12-07T00:37:03;18.10;;;9.77;;
17955;SDS011;27666;51.498;11.966;2022-12-07T00:39:50;17.67;;;9.87;;
17955;SDS011;27666;51.498;11.966;2022-12-07T00:42:36;34.00;;;18.00;;
17955;SDS011;27666;51.498;11.966;2022-12-07T00:45:22;24.70;;;13.57;;
17955;SDS011;27666;51.498;11.966;2022-12-07T00:48:09;19.27;;;11.17;;
17955;SDS011;27666;51.498;11.966;2022-12-07T00:50:56;19.07;;;10.40;;
17955;SDS011;27666;51.498;11.966;2022-12-07T00:53:43;24.00;;;11.00;;
17955;SDS011;27666;51.498;11.966;2022-12-07T00:56:30;18.33;;;10.50;;
17955;SDS011;27666;51.498;11.966;2022-12-07T00:59:16;18.47;;;11.70;;
17955;SDS011;27666;51.498;11.966;2022-12-07T01:02:02;18.17;;;10.23;;
17955;SDS011;27666;51.498;11.966;2022-12-07T01:04:49;23.27;;;11.00;;
17955;SDS011;27666;51.498;11.966;2022-12-07T01:07:37;17.30;;;10.57;;
17955;SDS011;27666;51.498;11.966;2022-12-07T01:10:23;19.27;;;11.47;;
17955;SDS011;27666;51.498;11.966;2022-12-07T01:13:10;20.27;;;11.00;;
17955;SDS011;27666;51.498;11.966;2022-12-07T01:15:56;18.47;;;11.23;;
17955;SDS011;27666;51.498;11.966;2022-12-07T01:18:45;16.93;;;11.23;;
17955;SDS011;27666;51.498;11.966;2022-12-07T01:21:33;17.73;;;11.23;;
17955;SDS011;27666;51.498;11.966;2022-12-07T01:24:23;21.30;;;11.27;;
17955;SDS011;27666;51.498;11.966;2022-12-07T01:27:09;18.27;;;11.10;;
17955;SDS011;27666;51.498;11.966;2022-12-07T01:29:56;20.63;;;11.73;;
17955;SDS011;27666;51.498;11.966;2022-12-07T01:32:43;19.23;;;10.60;;
17955;SDS011;27666;51.498;11.966;2022-12-07T01:35:29;18.67;;;10.97;;
17955;SDS011;27666;51.498;11.966;2022-12-07T01:38:19;19.57;;;11.60;;
17955;SDS011;27666;51.498;11.966;2022-12-07T01:41:07;20.03;;;11.33;;
17955;SDS011;27666;51.498;11.966;2022-12-07T01:44:11;20.30;;;11.60;;
17955;SDS011;27666;51.498;11.966;2022-12-07T01:47:03;20.47;;;11.53;;
17955;SDS011;27666;51.498;11.966;2022-12-07T01:49:50;21.37;;;11.90;;
17955;SDS011;27666;51.498;11.966;2022-12-07T01:52:37;20.37;;;12.37;;
17955;SDS011;27666;51.498;11.966;2022-12-07T01:55:25;21.97;;;12.77;;
17955;SDS011;27666;51.498;11.966;2022-12-07T01:58:14;23.73;;;12.17;;
17955;SDS011;27666;51.498;11.966;2022-12-07T02:01:02;19.17;;;11.37;;
17955;SDS011;27666;51.498;11.966;2022-12-07T02:03:48;19.03;;;11.17;;
17955;SDS011;27666;51.498;11.966;2022-12-07T02:06:35;21.20;;;11.67;;
17955;SDS011;27666;51.498;11.966;2022-12-07T02:09:22;21.73;;;12.20;;
17955;SDS011;27666;51.498;11.966;2022-12-07T02:12:09;21.30;;;11.80;;
17955;SDS011;27666;51.498;11.966;2022-12-07T02:14:57;20.60;;;12.17;;
17955;SDS011;27666;51.498;11.966;2022-12-07T02:17:45;19.57;;;11.60;;
17955;SDS011;27666;51.498;11.966;2022-12-07T02:20:37;18.80;;;10.03;;
17955;SDS011;27666;51.498;11.966;2022-12-07T02:23:43;23.40;;;12.03;;
17955;SDS011;27666;51.498;11.966;2022-12-07T02:30:14;22.60;;;11.60;;
17955;SDS011;27666;51.498;11.966;2022-12-07T02:33:04;22.07;;;12.47;;
17955;SDS011;27666;51.498;11.966;2022-12-07T02:35:58;17.73;;;11.03;;
17955;SDS011;27666;51.498;11.966;2022-12-07T02:38:49;19.63;;;11.70;;
17955;SDS011;27666;51.498;11.966;2022-12-07T02:41:42;19.60;;;11.20;;
17955;SDS011;27666;51.498;11.966;2022-12-07T02:44:32;20.33;;;11.53;;
17955;SDS011;27666;51.498;11.966;2022-12-07T02:47:21;18.23;;;10.77;;
17955;SDS011;27666;51.498;11.966;2022-12-07T02:50:10;20.03;;;11.00;;
17955;SDS011;27666;51.498;11.966;2022-12-07T02:52:57;17.17;;;10.60;;
17955;SDS011;27666;51.498;11.966;2022-12-07T02:55:43;18.37;;;10.50;;
17955;SDS011;27666;51.498;11.966;2022-12-07T02:58:32;20.33;;;11.40;;
17955;SDS011;27666;51.498;11.966;2022-12-07T03:01:27;19.13;;;10.67;;
17955;SDS011;27666;51.498;11.966;2022-12-07T03:04:26;21.17;;;10.97;;
17955;SDS011;27666;51.498;11.966;2022-12-07T03:07:24;17.40;;;10.30;;
17955;SDS011;27666;51.498;11.966;2022-12-07T03:10:19;19.67;;;10.93;;
17955;SDS011;27666;51.498;11.966;2022-12-07T03:13:14;19.07;;;10.80;;
17955;SDS011;27666;51.498;11.966;2022-12-07T03:16:08;18.83;;;10.50;;
17955;SDS011;27666;51.498;11.966;2022-12-07T03:19:02;18.30;;;11.60;;
17955;SDS011;27666;51.498;11.966;2022-12-07T03:21:54;18.90;;;10.77;;
17955;SDS011;27666;51.498;11.966;2022-12-07T03:24:44;16.80;;;9.37;;
17955;SDS011;27666;51.498;11.966;2022-12-07T03:27:37;23.30;;;10.93;;
17955;SDS011;27666;51.498;11.966;2022-12-07T03:30:27;19.23;;;11.13;;
17955;SDS011;27666;51.498;11.966;2022-12-07T03:33:17;20.73;;;10.70;;
17955;SDS011;27666;51.498;11.966;2022-12-07T03:36:08;22.67;;;11.83;;
17955;SDS011;27666;51.498;11.966;2022-12-07T03:39:02;18.13;;;11.07;;
17955;SDS011;27666;51.498;11.966;2022-12-07T03:41:54;19.37;;;10.60;;
17955;SDS011;27666;51.498;11.966;2022-12-07T03:44:42;16.90;;;10.10;;
17955;SDS011;27666;51.498;11.966;2022-12-07T03:47:29;19.70;;;10.40;;
17955;SDS011;27666;51.498;11.966;2022-12-07T03:50:22;16.00;;;9.97;;
17955;SDS011;27666;51.498;11.966;2022-12-07T03:53:14;21.20;;;10.63;;
17955;SDS011;27666;51.498;11.966;2022-12-07T03:56:06;20.23;;;10.00;;
17955;SDS011;27666;51.498;11.966;2022-12-07T03:58:53;16.80;;;9.83;;
17955;SDS011;27666;51.498;11.966;2022-12-07T04:01:41;17.23;;;9.50;;
17955;SDS011;27666;51.498;11.966;2022-12-07T04:04:28;18.80;;;10.60;;
17955;SDS011;27666;51.498;11.966;2022-12-07T04:07:15;16.53;;;10.17;;
17955;SDS011;27666;51.498;11.966;2022-12-07T04:10:01;16.30;;;10.47;;
17955;SDS011;27666;51.498;11.966;2022-12-07T04:12:50;16.87;;;9.97;;
17955;SDS011;27666;51.498;11.966;2022-12-07T04:15:37;20.03;;;10.90;;
17955;SDS011;27666;51.498;11.966;2022-12-07T04:18:23;15.43;;;8.80;;
17955;SDS011;27666;51.498;11.966;2022-12-07T04:21:10;20.83;;;11.10;;
17955;SDS011;27666;51.498;11.966;2022-12-07T04:23:56;16.20;;;9.50;;
17955;SDS011;27666;51.498;11.966;2022-12-07T04:26:43;14.20;;;9.33;;
17955;SDS011;27666;51.498;11.966;2022-12-07T04:29:31;13.47;;;8.63;;
17955;SDS011;27666;51.498;11.966;2022-12-07T04:32:18;15.60;;;8.80;;
17955;SDS011;27666;51.498;11.966;2022-12-07T04:35:04;16.47;;;8.83;;
17955;SDS011;27666;51.498;11.966;2022-12-07T04:37:51;14.10;;;8.60;;
17955;SDS011;27666;51.498;11.966;2022-12-07T04:40:37;13.13;;;8.47;;
17955;SDS011;27666;51.498;11.966;2022-12-07T04:43:24;13.70;;;8.47;;
17955;SDS011;27666;51.498;11.966;2022-12-07T04:46:12;14.73;;;8.10;;
17955;SDS011;27666;51.498;11.966;2022-12-07T04:48:58;15.00;;;8.93;;
17955;SDS011;27666;51.498;11.966;2022-12-07T04:51:45;14.20;;;8.43;;
17955;SDS011;27666;51.498;11.966;2022-12-07T04:54:31;13.87;;;8.20;;
17955;SDS011;27666;51.498;11.966;2022-12-07T04:57:18;12.80;;;7.87;;
17955;SDS011;27666;51.498;11.966;2022-12-07T05:00:05;16.73;;;9.37;;
17955;SDS011;27666;51.498;11.966;2022-12-07T05:02:53;15.33;;;9.80;;
17955;SDS011;27666;51.498;11.966;2022-12-07T05:05:40;12.77;;;8.17;;
17955;SDS011;27666;51.498;11.966;2022-12-07T05:08:27;11.67;;;7.43;;
17955;SDS011;27666;51.498;11.966;2022-12-07T05:11:13;12.07;;;7.97;;
17955;SDS011;27666;51.498;11.966;2022-12-07T05:14:20;13.80;;;8.60;;
17955;SDS011;27666;51.498;11.966;2022-12-07T05:17:07;14.30;;;8.40;;
17955;SDS011;27666;51.498;11.966;2022-12-07T05:19:55;12.30;;;7.40;;
17955;SDS011;27666;51.498;11.966;2022-12-07T05:22:41;11.10;;;7.40;;
17955;SDS011;27666;51.498;11.966;2022-12-07T05:25:28;10.63;;;8.13;;
17955;SDS011;27666;51.498;11.966;2022-12-07T05:28:14;11.53;;;7.47;;
17955;SDS011;27666;51.498;11.966;2022-12-07T05:31:00;12.33;;;7.90;;
17955;SDS011;27666;51.498;11.966;2022-12-07T05:33:47;9.70;;;7.10;;
17955;SDS011;27666;51.498;11.966;2022-12-07T05:36:35;10.33;;;7.37;;
17955;SDS011;27666;51.498;11.966;2022-12-07T05:39:22;13.20;;;8.20;;
17955;SDS011;27666;51.498;11.966;2022-12-07T05:42:08;11.73;;;8.30;;
17955;SDS011;27666;51.498;11.966;2022-12-07T05:44:58;13.43;;;8.13;;
17955;SDS011;27666;51.498;11.966;2022-12-07T05:47:45;12.37;;;8.20;;
17955;SDS011;27666;51.498;11.966;2022-12-07T05:50:32;14.50;;;8.30;;
17955;SDS011;27666;51.498;11.966;2022-12-07T05:53:19;14.47;;;8.93;;
17955;SDS011;27666;51.498;11.966;2022-12-07T05:56:07;14.07;;;8.93;;
17955;SDS011;27666;51.498;11.966;2022-12-07T05:58:53;15.00;;;9.53;;
17955;SDS011;27666;51.498;11.966;2022-12-07T06:01:58;18.67;;;11.33;;
17955;SDS011;27666;51.498;11.966;2022-12-07T06:04:46;19.83;;;11.33;;
17955;SDS011;27666;51.498;11.966;2022-12-07T06:07:32;21.87;;;13.03;;
17955;SDS011;27666;51.498;11.966;2022-12-07T06:10:20;23.40;;;13.47;;
17955;SDS011;27666;51.498;11.966;2022-12-07T06:13:07;19.50;;;12.10;;
17955;SDS011;27666;51.498;11.966;2022-12-07T06:15:52;21.08;;;13.20;;
17955;SDS011;27666;51.498;11.966;2022-12-07T06:18:39;18.93;;;12.30;;
17955;SDS011;27666;51.498;11.966;2022-12-07T06:21:25;19.13;;;12.20;;
17955;SDS011;27666;51.498;11.966;2022-12-07T06:24:12;22.40;;;13.20;;
17955;SDS011;27666;51.498;11.966;2022-12-07T06:27:00;17.43;;;11.07;;
17955;SDS011;27666;51.498;11.966;2022-12-07T06:29:47;18.87;;;11.50;;
17955;SDS011;27666;51.498;11.966;2022-12-07T06:32:34;16.83;;;10.40;;
17955;SDS011;27666;51.498;11.966;2022-12-07T06:35:21;15.93;;;9.57;;
17955;SDS011;27666;51.498;11.966;2022-12-07T06:38:08;12.93;;;9.27;;
17955;SDS011;27666;51.498;11.966;2022-12-07T06:40:54;14.33;;;9.37;;
17955;SDS011;27666;51.498;11.966;2022-12-07T06:43:42;19.60;;;10.93;;
17955;SDS011;27666;51.498;11.966;2022-12-07T06:46:28;17.50;;;10.50;;
17955;SDS011;27666;51.498;11.966;2022-12-07T06:49:14;15.67;;;10.27;;
17955;SDS011;27666;51.498;11.966;2022-12-07T06:52:01;17.20;;;10.30;;
17955;SDS011;27666;51.498;11.966;2022-12-07T06:54:49;16.97;;;10.47;;
17955;SDS011;27666;51.498;11.966;2022-12-07T06:57:36;18.37;;;10.57;;
17955;SDS011;27666;51.498;11.966;2022-12-07T07:00:23;16.33;;;10.47;;
17955;SDS011;27666;51.498;11.966;2022-12-07T07:03:10;17.10;;;11.00;;
17955;SDS011;27666;51.498;11.966;2022-12-07T07:05:56;15.53;;;10.10;;
17955;SDS011;27666;51.498;11.966;2022-12-07T07:08:43;19.60;;;10.73;;
17955;SDS011;27666;51.498;11.966;2022-12-07T07:11:29;19.13;;;10.50;;
17955;SDS011;27666;51.498;11.966;2022-12-07T07:14:16;16.60;;;10.63;;
17955;SDS011;27666;51.498;11.966;2022-12-07T07:17:05;16.83;;;10.60;;
17955;SDS011;27666;51.498;11.966;2022-12-07T07:19:51;17.57;;;11.27;;
17955;SDS011;27666;51.498;11.966;2022-12-07T07:22:38;17.60;;;10.43;;
17955;SDS011;27666;51.498;11.966;2022-12-07T07:25:24;21.33;;;11.30;;
17955;SDS011;27666;51.498;11.966;2022-12-07T07:28:11;20.20;;;11.63;;
17955;SDS011;27666;51.498;11.966;2022-12-07T07:30:57;14.77;;;9.90;;
17955;SDS011;27666;51.498;11.966;2022-12-07T07:33:46;51.00;;;22.33;;
17955;SDS011;27666;51.498;11.966;2022-12-07T07:36:32;23.97;;;12.17;;
17955;SDS011;27666;51.498;11.966;2022-12-07T07:39:18;17.10;;;10.50;;
17955;SDS011;27666;51.498;11.966;2022-12-07T07:42:05;20.10;;;11.30;;
17955;SDS011;27666;51.498;11.966;2022-12-07T07:44:52;17.97;;;10.77;;
17955;SDS011;27666;51.498;11.966;2022-12-07T07:47:38;25.47;;;11.63;;
17955;SDS011;27666;51.498;11.966;2022-12-07T07:50:26;27.37;;;11.70;;
17955;SDS011;27666;51.498;11.966;2022-12-07T07:53:12;19.00;;;11.53;;
17955;SDS011;27666;51.498;11.966;2022-12-07T07:55:59;19.60;;;10.90;;
17955;SDS011;27666;51.498;11.966;2022-12-07T07:58:45;20.03;;;11.03;;
17955;SDS011;27666;51.498;11.966;2022-12-07T08:01:32;20.60;;;10.23;;
17955;SDS011;27666;51.498;11.966;2022-12-07T08:04:18;19.50;;;10.43;;
17955;SDS011;27666;51.498;11.966;2022-12-07T08:07:06;17.97;;;9.77;;
17955;SDS011;27666;51.498;11.966;2022-12-07T08:09:52;15.93;;;9.37;;
17955;SDS011;27666;51.498;11.966;2022-12-07T08:12:38;14.70;;;9.53;;
17955;SDS011;27666;51.498;11.966;2022-12-07T08:15:45;13.53;;;8.77;;
17955;SDS011;27666;51.498;11.966;2022-12-07T08:18:34;15.97;;;9.57;;
17955;SDS011;27666;51.498;11.966;2022-12-07T08:21:21;17.83;;;10.67;;
17955;SDS011;27666;51.498;11.966;2022-12-07T08:24:09;16.30;;;9.47;;
17955;SDS011;27666;51.498;11.966;2022-12-07T08:26:56;18.67;;;10.30;;
17955;SDS011;27666;51.498;11.966;2022-12-07T08:29:42;15.17;;;9.10;;
17955;SDS011;27666;51.498;11.966;2022-12-07T08:32:29;19.40;;;10.13;;
17955;SDS011;27666;51.498;11.966;2022-12-07T08:35:15;17.37;;;10.00;;
17955;SDS011;27666;51.498;11.966;2022-12-07T08:38:02;18.40;;;10.47;;
17955;SDS011;27666;51.498;11.966;2022-12-07T08:40:54;17.40;;;10.17;;
17955;SDS011;27666;51.498;11.966;2022-12-07T08:43:41;23.40;;;10.97;;
17955;SDS011;27666;51.498;11.966;2022-12-07T08:46:29;18.70;;;10.37;;
17955;SDS011;27666;51.498;11.966;2022-12-07T08:49:20;18.17;;;10.63;;
17955;SDS011;27666;51.498;11.966;2022-12-07T08:52:10;21.00;;;12.63;;
17955;SDS011;27666;51.498;11.966;2022-12-07T08:54:57;16.47;;;10.17;;
17955;SDS011;27666;51.498;11.966;2022-12-07T08:57:45;20.50;;;10.20;;
17955;SDS011;27666;51.498;11.966;2022-12-07T09:00:32;20.30;;;11.50;;
17955;SDS011;27666;51.498;11.966;2022-12-07T09:03:18;24.10;;;13.77;;
17955;SDS011;27666;51.498;11.966;2022-12-07T09:06:05;16.33;;;9.33;;
17955;SDS011;27666;51.498;11.966;2022-12-07T09:08:52;12.23;;;7.07;;
17955;SDS011;27666;51.498;11.966;2022-12-07T09:11:42;10.80;;;6.93;;
17955;SDS011;27666;51.498;11.966;2022-12-07T09:14:31;12.83;;;6.30;;
17955;SDS011;27666;51.498;11.966;2022-12-07T09:17:17;13.93;;;6.50;;
17955;SDS011;27666;51.498;11.966;2022-12-07T09:20:04;11.93;;;8.00;;
17955;SDS011;27666;51.498;11.966;2022-12-07T09:22:52;14.67;;;7.50;;
17955;SDS011;27666;51.498;11.966;2022-12-07T09:25:38;13.73;;;7.93;;
17955;SDS011;27666;51.498;11.966;2022-12-07T09:28:24;17.17;;;9.53;;
17955;SDS011;27666;51.498;11.966;2022-12-07T09:31:12;28.10;;;13.70;;
17955;SDS011;27666;51.498;11.966;2022-12-07T09:34:08;21.50;;;11.03;;
17955;SDS011;27666;51.498;11.966;2022-12-07T09:36:55;22.77;;;12.97;;
17955;SDS011;27666;51.498;11.966;2022-12-07T09:39:41;20.13;;;11.83;;
17955;SDS011;27666;51.498;11.966;2022-12-07T09:42:34;24.97;;;13.03;;
17955;SDS011;27666;51.498;11.966;2022-12-07T09:45:24;22.37;;;12.13;;
17955;SDS011;27666;51.498;11.966;2022-12-07T09:48:18;18.00;;;10.20;;
17955;SDS011;27666;51.498;11.966;2022-12-07T09:51:11;18.67;;;10.70;;
17955;SDS011;27666;51.498;11.966;2022-12-07T09:54:08;25.50;;;11.73;;
17955;SDS011;27666;51.498;11.966;2022-12-07T09:56:58;17.20;;;9.83;;
17955;SDS011;27666;51.498;11.966;2022-12-07T09:59:45;19.67;;;10.33;;
17955;SDS011;27666;51.498;11.966;2022-12-07T10:02:34;12.63;;;8.73;;
17955;SDS011;27666;51.498;11.966;2022-12-07T10:05:24;14.33;;;8.27;;
17955;SDS011;27666;51.498;11.966;2022-12-07T10:08:14;14.13;;;7.80;;
17955;SDS011;27666;51.498;11.966;2022-12-07T10:11:02;15.77;;;9.10;;
17955;SDS011;27666;51.498;11.966;2022-12-07T10:13:55;18.47;;;10.37;;
17955;SDS011;27666;51.498;11.966;2022-12-07T10:16:57;14.30;;;8.27;;
17955;SDS011;27666;51.498;11.966;2022-12-07T10:19:43;13.70;;;8.23;;
17955;SDS011;27666;51.498;11.966;2022-12-07T10:22:31;13.80;;;8.63;;
17955;SDS011;27666;51.498;11.966;2022-12-07T10:25:18;12.00;;;7.70;;
17955;SDS011;27666;51.498;11.966;2022-12-07T10:28:13;13.43;;;7.80;;
17955;SDS011;27666;51.498;11.966;2022-12-07T10:31:02;14.63;;;8.63;;
17955;SDS011;27666;51.498;11.966;2022-12-07T10:34:01;13.67;;;8.03;;
17955;SDS011;27666;51.498;11.966;2022-12-07T10:36:47;11.83;;;7.97;;
17955;SDS011;27666;51.498;11.966;2022-12-07T10:39:41;14.30;;;7.90;;
17955;SDS011;27666;51.498;11.966;2022-12-07T10:42:29;10.40;;;7.87;;
17955;SDS011;27666;51.498;11.966;2022-12-07T10:45:18;13.20;;;6.97;;
17955;SDS011;27666;51.498;11.966;2022-12-07T10:48:06;10.60;;;7.03;;
17955;SDS011;27666;51.498;11.966;2022-12-07T10:51:01;15.80;;;7.17;;
17955;SDS011;27666;51.498;11.966;2022-12-07T10:53:52;12.13;;;6.90;;
17955;SDS011;27666;51.498;11.966;2022-12-07T10:57:00;12.90;;;5.60;;
17955;SDS011;27666;51.498;11.966;2022-12-07T10:59:59;8.80;;;5.97;;
17955;SDS011;27666;51.498;11.966;2022-12-07T11:06:10;8.13;;;5.87;;
17955;SDS011;27666;51.498;11.966;2022-12-07T11:09:15;8.60;;;5.60;;
17955;SDS011;27666;51.498;11.966;2022-12-07T11:12:43;8.07;;;5.70;;
17955;SDS011;27666;51.498;11.966;2022-12-07T11:15:47;10.23;;;6.37;;
17955;SDS011;27666;51.498;11.966;2022-12-07T11:18:53;13.53;;;7.97;;
17955;SDS011;27666;51.498;11.966;2022-12-07T11:21:52;12.33;;;7.40;;
17955;SDS011;27666;51.498;11.966;2022-12-07T11:24:44;10.77;;;6.87;;
17955;SDS011;27666;51.498;11.966;2022-12-07T11:27:39;12.93;;;6.77;;
17955;SDS011;27666;51.498;11.966;2022-12-07T11:30:33;14.33;;;8.07;;
17955;SDS011;27666;51.498;11.966;2022-12-07T11:33:26;11.33;;;6.63;;
17955;SDS011;27666;51.498;11.966;2022-12-07T11:36:25;12.80;;;6.73;;
17955;SDS011;27666;51.498;11.966;2022-12-07T11:39:22;7.60;;;5.70;;
17955;SDS011;27666;51.498;11.966;2022-12-07T11:42:15;11.00;;;5.83;;
17955;SDS011;27666;51.498;11.966;2022-12-07T11:45:13;23.73;;;12.37;;
17955;SDS011;27666;51.498;11.966;2022-12-07T11:48:02;13.03;;;7.50;;
17955;SDS011;27666;51.498;11.966;2022-12-07T11:50:53;10.97;;;6.50;;
17955;SDS011;27666;51.498;11.966;2022-12-07T11:53:44;9.27;;;6.57;;
17955;SDS011;27666;51.498;11.966;2022-12-07T11:56:35;10.47;;;6.27;;
17955;SDS011;27666;51.498;11.966;2022-12-07T11:59:23;7.50;;;5.80;;
17955;SDS011;27666;51.498;11.966;2022-12-07T12:02:16;8.33;;;6.20;;
17955;SDS011;27666;51.498;11.966;2022-12-07T12:05:12;12.00;;;6.47;;
17955;SDS011;27666;51.498;11.966;2022-12-07T12:08:03;11.67;;;6.37;;
17955;SDS011;27666;51.498;11.966;2022-12-07T12:11:21;9.77;;;5.53;;
17955;SDS011;27666;51.498;11.966;2022-12-07T12:14:28;8.17;;;4.97;;
17955;SDS011;27666;51.498;11.966;2022-12-07T12:17:37;11.13;;;4.47;;
17955;SDS011;27666;51.498;11.966;2022-12-07T12:20:44;7.30;;;4.47;;
17955;SDS011;27666;51.498;11.966;2022-12-07T12:23:39;8.53;;;4.43;;
17955;SDS011;27666;51.498;11.966;2022-12-07T12:26:28;8.53;;;5.43;;
17955;SDS011;27666;51.498;11.966;2022-12-07T12:29:19;3.97;;;3.00;;
17955;SDS011;27666;51.498;11.966;2022-12-07T12:32:16;7.20;;;4.00;;
17955;SDS011;27666;51.498;11.966;2022-12-07T12:35:28;5.93;;;4.13;;
17955;SDS011;27666;51.498;11.966;2022-12-07T12:38:24;3.33;;;3.03;;
17955;SDS011;27666;51.498;11.966;2022-12-07T12:48:10;6.37;;;4.07;;
17955;SDS011;27666;51.498;11.966;2022-12-07T12:51:36;9.20;;;4.23;;
17955;SDS011;27666;51.498;11.966;2022-12-07T12:54:25;11.30;;;4.30;;
17955;SDS011;27666;51.498;11.966;2022-12-07T12:57:13;9.53;;;3.90;;
17955;SDS011;27666;51.498;11.966;2022-12-07T13:00:14;9.97;;;4.20;;
17955;SDS011;27666;51.498;11.966;2022-12-07T13:03:03;5.43;;;3.90;;
17955;SDS011;27666;51.498;11.966;2022-12-07T13:09:21;6.00;;;3.80;;
17955;SDS011;27666;51.498;11.966;2022-12-07T13:12:11;5.67;;;4.13;;
17955;SDS011;27666;51.498;11.966;2022-12-07T13:15:00;9.37;;;4.17;;
17955;SDS011;27666;51.498;11.966;2022-12-07T13:17:58;4.53;;;3.03;;
17955;SDS011;27666;51.498;11.966;2022-12-07T13:20:51;6.63;;;3.80;;
17955;SDS011;27666;51.498;11.966;2022-12-07T13:23:47;6.80;;;3.33;;
17955;SDS011;27666;51.498;11.966;2022-12-07T13:26:42;5.50;;;3.70;;
17955;SDS011;27666;51.498;11.966;2022-12-07T13:29:29;6.30;;;4.10;;
17955;SDS011;27666;51.498;11.966;2022-12-07T13:32:23;5.47;;;3.70;;
17955;SDS011;27666;51.498;11.966;2022-12-07T13:35:27;6.60;;;4.57;;
17955;SDS011;27666;51.498;11.966;2022-12-07T13:38:18;8.33;;;4.77;;
17955;SDS011;27666;51.498;11.966;2022-12-07T13:41:13;6.23;;;4.33;;
17955;SDS011;27666;51.498;11.966;2022-12-07T13:44:04;7.67;;;4.60;;
17955;SDS011;27666;51.498;11.966;2022-12-07T13:47:00;6.57;;;4.10;;
17955;SDS011;27666;51.498;11.966;2022-12-07T13:49:53;6.87;;;4.10;;
17955;SDS011;27666;51.498;11.966;2022-12-07T13:52:43;7.10;;;3.83;;
17955;SDS011;27666;51.498;11.966;2022-12-07T13:55:30;7.47;;;4.13;;
17955;SDS011;27666;51.498;11.966;2022-12-07T13:58:16;6.33;;;4.20;;
17955;SDS011;27666;51.498;11.966;2022-12-07T14:01:04;10.10;;;4.20;;
17955;SDS011;27666;51.498;11.966;2022-12-07T14:03:51;4.60;;;3.10;;
17955;SDS011;27666;51.498;11.966;2022-12-07T14:06:46;8.57;;;5.07;;
17955;SDS011;27666;51.498;11.966;2022-12-07T14:09:33;25.00;;;12.73;;
17955;SDS011;27666;51.498;11.966;2022-12-07T14:12:21;7.30;;;3.77;;
17955;SDS011;27666;51.498;11.966;2022-12-07T14:15:15;5.50;;;3.73;;
17955;SDS011;27666;51.498;11.966;2022-12-07T14:21:14;7.93;;;4.23;;
17955;SDS011;27666;51.498;11.966;2022-12-07T14:24:10;6.10;;;4.63;;
17955;SDS011;27666;51.498;11.966;2022-12-07T14:27:00;9.17;;;3.73;;
17955;SDS011;27666;51.498;11.966;2022-12-07T14:29:47;7.03;;;4.57;;
17955;SDS011;27666;51.498;11.966;2022-12-07T14:32:35;7.03;;;3.67;;
17955;SDS011;27666;51.498;11.966;2022-12-07T14:35:24;16.60;;;8.90;;
17955;SDS011;27666;51.498;11.966;2022-12-07T14:38:10;15.07;;;7.10;;
17955;SDS011;27666;51.498;11.966;2022-12-07T14:40:57;9.67;;;5.33;;
17955;SDS011;27666;51.498;11.966;2022-12-07T14:44:07;7.67;;;5.50;;
17955;SDS011;27666;51.498;11.966;2022-12-07T14:47:08;7.77;;;4.10;;
17955;SDS011;27666;51.498;11.966;2022-12-07T14:50:16;7.37;;;4.47;;
17955;SDS011;27666;51.498;11.966;2022-12-07T14:53:06;8.30;;;5.67;;
17955;SDS011;27666;51.498;11.966;2022-12-07T14:56:04;12.97;;;8.37;;
17955;SDS011;27666;51.498;11.966;2022-12-07T14:58:51;9.03;;;6.33;;
17955;SDS011;27666;51.498;11.966;2022-12-07T15:01:37;8.97;;;6.13;;
17955;SDS011;27666;51.498;11.966;2022-12-07T15:04:24;11.57;;;7.53;;
17955;SDS011;27666;51.498;11.966;2022-12-07T15:07:13;13.87;;;8.17;;
17955;SDS011;27666;51.498;11.966;2022-12-07T15:10:09;9.87;;;5.83;;
17955;SDS011;27666;51.498;11.966;2022-12-07T15:13:07;9.23;;;5.00;;
17955;SDS011;27666;51.498;11.966;2022-12-07T15:16:12;12.30;;;4.43;;
17955;SDS011;27666;51.498;11.966;2022-12-07T15:19:01;8.53;;;4.20;;
17955;SDS011;27666;51.498;11.966;2022-12-07T15:22:08;7.77;;;3.97;;
17955;SDS011;27666;51.498;11.966;2022-12-07T15:24:55;6.43;;;4.00;;
17955;SDS011;27666;51.498;11.966;2022-12-07T15:27:43;9.50;;;4.30;;
17955;SDS011;27666;51.498;11.966;2022-12-07T15:30:29;7.57;;;4.10;;
17955;SDS011;27666;51.498;11.966;2022-12-07T15:33:16;8.60;;;3.60;;
17955;SDS011;27666;51.498;11.966;2022-12-07T15:36:02;4.13;;;3.20;;
17955;SDS011;27666;51.498;11.966;2022-12-07T15:38:49;6.00;;;3.27;;
17955;SDS011;27666;51.498;11.966;2022-12-07T15:41:55;10.87;;;4.50;;
17955;SDS011;27666;51.498;11.966;2022-12-07T15:44:44;10.33;;;5.80;;
17955;SDS011;27666;51.498;11.966;2022-12-07T15:47:48;6.80;;;4.13;;
17955;SDS011;27666;51.498;11.966;2022-12-07T15:51:01;6.97;;;3.40;;
17955;SDS011;27666;51.498;11.966;2022-12-07T15:53:48;5.47;;;3.50;;
17955;SDS011;27666;51.498;11.966;2022-12-07T15:56:34;6.63;;;3.57;;
17955;SDS011;27666;51.498;11.966;2022-12-07T15:59:20;3.73;;;2.80;;
17955;SDS011;27666;51.498;11.966;2022-12-07T16:02:09;3.40;;;3.10;;
17955;SDS011;27666;51.498;11.966;2022-12-07T16:04:56;8.77;;;3.90;;
17955;SDS011;27666;51.498;11.966;2022-12-07T16:07:42;5.90;;;4.50;;
17955;SDS011;27666;51.498;11.966;2022-12-07T16:10:31;4.07;;;3.23;;
17955;SDS011;27666;51.498;11.966;2022-12-07T16:13:17;6.80;;;3.50;;
17955;SDS011;27666;51.498;11.966;2022-12-07T16:16:04;9.13;;;4.17;;
17955;SDS011;27666;51.498;11.966;2022-12-07T16:18:53;4.87;;;3.23;;
17955;SDS011;27666;51.498;11.966;2022-12-07T16:21:40;7.83;;;3.80;;
17955;SDS011;27666;51.498;11.966;2022-12-07T16:24:27;9.60;;;4.07;;
17955;SDS011;27666;51.498;11.966;2022-12-07T16:27:13;5.87;;;3.23;;
17955;SDS011;27666;51.498;11.966;2022-12-07T16:30:00;8.73;;;4.13;;
17955;SDS011;27666;51.498;11.966;2022-12-07T16:32:46;5.70;;;3.83;;
17955;SDS011;27666;51.498;11.966;2022-12-07T16:35:34;5.07;;;3.70;;
17955;SDS011;27666;51.498;11.966;2022-12-07T16:38:25;5.43;;;3.47;;
17955;SDS011;27666;51.498;11.966;2022-12-07T16:41:11;4.47;;;3.13;;
17955;SDS011;27666;51.498;11.966;2022-12-07T16:43:58;5.37;;;3.57;;
17955;SDS011;27666;51.498;11.966;2022-12-07T16:46:48;27.17;;;8.47;;
17955;SDS011;27666;51.498;11.966;2022-12-07T16:49:35;9.73;;;4.57;;
17955;SDS011;27666;51.498;11.966;2022-12-07T16:52:22;7.83;;;4.37;;